createdAt,value
2019-04-04T00:06:40.895Z,1.60
2019-04-04T00:13:25.892Z,1.60
2019-04-04T00:20:10.975Z,1.43
2019-04-04T00:26:57.295Z,1.43
2019-04-04T00:33:42.271Z,1.37
2019-04-04T00:40:27.191Z,1.60
2019-04-04T00:47:12.298Z,2.10
2019-04-04T00:53:57.144Z,1.87
2019-04-04T01:00:42.244Z,1.80
2019-04-04T01:07:27.204Z,1.77
2019-04-04T01:14:12.321Z,1.97
2019-04-04T01:20:57.178Z,2.27
2019-04-04T01:27:42.379Z,2.00
2019-04-04T01:34:28.346Z,2.50
2019-04-04T01:41:13.434Z,2.53
2019-04-04T01:47:58.275Z,2.30
2019-04-04T01:54:43.325Z,2.83
2019-04-04T02:01:28.809Z,3.02
2019-04-04T02:08:13.904Z,3.20
2019-04-04T02:14:58.838Z,2.73
2019-04-04T02:21:43.679Z,3.30
2019-04-04T02:28:28.523Z,3.00
2019-04-04T02:35:13.622Z,2.47
2019-04-04T02:41:58.547Z,3.53
2019-04-04T02:48:43.631Z,3.30
2019-04-04T02:55:31.208Z,3.33
2019-04-04T03:02:16.301Z,3.60
2019-04-04T03:09:01.359Z,3.27
2019-04-04T03:15:48.326Z,4.60
2019-04-04T03:22:33.311Z,5.15
2019-04-04T03:29:18.158Z,5.30
2019-04-04T03:36:04.094Z,5.70
2019-04-04T03:42:49.258Z,6.10
2019-04-04T03:49:34.114Z,6.17
2019-04-04T03:56:19.037Z,6.00
2019-04-04T04:03:03.968Z,7.37
2019-04-04T04:09:48.913Z,8.33
2019-04-04T04:16:35.955Z,8.60
2019-04-04T04:23:23.862Z,7.23
2019-04-04T04:30:08.049Z,7.80
2019-04-04T04:36:52.946Z,7.73
2019-04-04T04:43:37.891Z,5.97
2019-04-04T04:50:22.835Z,6.37
2019-04-04T04:57:07.747Z,7.00
2019-04-04T05:03:54.175Z,7.80
2019-04-04T05:10:39.580Z,10.63
2019-04-04T05:17:24.438Z,10.87
2019-04-04T05:24:09.463Z,11.00
2019-04-04T05:30:54.331Z,12.93
2019-04-04T05:37:39.342Z,12.60
2019-04-04T05:44:24.388Z,13.20
2019-04-04T05:51:09.324Z,15.43
2019-04-04T05:57:54.276Z,15.87
2019-04-04T06:04:39.135Z,18.63
2019-04-04T06:11:23.996Z,17.95
2019-04-04T06:18:10.973Z,13.57
2019-04-04T06:24:59.115Z,13.70
2019-04-04T06:31:42.074Z,17.37
2019-04-04T06:38:26.932Z,14.00
2019-04-04T06:45:15.135Z,14.93
2019-04-04T06:51:58.504Z,13.87
2019-04-04T06:58:43.362Z,14.27
2019-04-04T07:05:28.518Z,14.70
2019-04-04T07:12:22.220Z,15.17
2019-04-04T07:19:00.029Z,13.70
2019-04-04T07:25:44.883Z,11.60
2019-04-04T07:32:29.746Z,13.20
2019-04-04T07:39:14.608Z,14.27
2019-04-04T07:46:01.431Z,14.27
2019-04-04T07:52:46.021Z,13.37
2019-04-04T07:59:31.289Z,13.30
2019-04-04T08:06:16.311Z,11.00
2019-04-04T08:13:01.168Z,11.97
2019-04-04T08:19:46.028Z,13.90
2019-04-04T08:26:30.882Z,14.53
2019-04-04T08:33:15.779Z,15.20
2019-04-04T08:40:00.643Z,14.40
2019-04-04T08:46:45.569Z,14.47
2019-04-04T08:53:39.748Z,15.43
2019-04-04T09:00:17.279Z,13.37
2019-04-04T09:07:02.207Z,12.07
2019-04-04T09:13:47.139Z,13.07
2019-04-04T09:20:32.233Z,13.13
2019-04-04T09:27:18.519Z,11.50
2019-04-04T09:34:03.739Z,13.47
2019-04-04T09:40:48.740Z,13.30
2019-04-04T09:47:33.671Z,12.88
2019-04-04T09:54:19.516Z,13.63
2019-04-04T10:01:06.582Z,13.67
2019-04-04T10:07:51.550Z,12.03
2019-04-04T10:14:37.359Z,12.70
2019-04-04T10:21:22.319Z,12.20
2019-04-04T10:28:07.350Z,12.70
2019-04-04T10:34:52.281Z,13.03
2019-04-04T10:41:37.410Z,12.30
2019-04-04T10:48:22.278Z,9.97
2019-04-04T10:55:07.677Z,8.87
2019-04-04T11:01:52.983Z,6.00
2019-04-04T11:08:38.086Z,7.30
2019-04-04T11:15:23.191Z,7.30
2019-04-04T11:22:09.468Z,8.17
2019-04-04T11:28:54.385Z,6.10
2019-04-04T11:35:39.230Z,5.80
2019-04-04T11:42:24.230Z,5.50
2019-04-04T11:49:09.150Z,5.70
2019-04-04T11:55:54.417Z,4.97
2019-04-04T12:02:39.450Z,6.03
2019-04-04T12:09:24.336Z,4.97
2019-04-04T12:16:09.244Z,4.67
2019-04-04T12:22:55.032Z,5.23
2019-04-04T12:29:40.111Z,4.93
2019-04-04T12:36:26.047Z,3.50
2019-04-04T12:43:13.575Z,3.27
2019-04-04T12:49:58.419Z,3.07
2019-04-04T12:56:43.588Z,2.47
2019-04-04T13:03:28.479Z,2.47
2019-04-04T13:10:13.966Z,2.20
2019-04-04T13:16:58.951Z,1.90
2019-04-04T13:23:43.980Z,1.90
2019-04-04T13:30:28.827Z,2.30
2019-04-04T13:37:13.679Z,2.30
2019-04-04T13:43:58.541Z,2.33
2019-04-04T13:50:43.510Z,2.50
2019-04-04T13:57:28.375Z,2.80
2019-04-04T14:04:13.291Z,2.50
2019-04-04T14:10:59.350Z,2.90
2019-04-04T14:17:44.374Z,3.30
2019-04-04T14:24:30.627Z,2.77
2019-04-04T14:31:15.472Z,2.30
2019-04-04T14:38:00.327Z,2.37
2019-04-04T14:44:45.175Z,2.33
2019-04-04T14:51:30.023Z,2.20
2019-04-04T14:58:15.055Z,1.60
2019-04-04T15:05:00.239Z,1.57
2019-04-04T15:11:45.087Z,1.37
2019-04-04T15:18:29.936Z,1.60
2019-04-04T15:25:14.783Z,1.80
2019-04-04T15:32:00.347Z,1.70
2019-04-04T15:38:45.266Z,1.60
2019-04-04T15:45:30.118Z,1.30
2019-04-04T15:52:14.975Z,1.63
2019-04-04T15:59:00.384Z,1.80
2019-04-04T16:05:45.476Z,2.23
2019-04-04T16:12:30.398Z,2.20
2019-04-04T16:19:15.872Z,2.10
2019-04-04T16:26:00.863Z,2.23
2019-04-04T16:32:45.975Z,2.27
2019-04-04T16:39:30.887Z,2.40
2019-04-04T16:46:15.799Z,2.10
2019-04-04T16:53:00.642Z,2.30
2019-04-04T16:59:45.559Z,1.90
2019-04-04T17:06:30.570Z,1.73
2019-04-04T17:13:15.507Z,1.57
2019-04-04T17:20:00.856Z,1.03
2019-04-04T17:26:45.918Z,1.60
2019-04-04T17:33:31.143Z,1.17
2019-04-04T17:40:16.328Z,1.20
2019-04-04T17:47:01.251Z,0.90
2019-04-04T17:53:47.079Z,0.90
2019-04-04T18:00:32.756Z,1.10
2019-04-04T18:07:17.724Z,1.20
2019-04-04T18:14:02.711Z,1.00
2019-04-04T18:20:47.719Z,1.10
2019-04-04T18:27:33.698Z,2.63
2019-04-04T18:34:18.890Z,1.60
2019-04-04T18:41:04.695Z,1.97
2019-04-04T18:47:49.738Z,2.23
2019-04-04T18:54:34.887Z,2.73
2019-04-04T19:01:20.079Z,3.10
2019-04-04T19:08:05.623Z,3.93
2019-04-04T19:14:52.223Z,4.90
2019-04-04T19:21:38.043Z,2.67
2019-04-04T19:28:23.220Z,2.90
2019-04-04T19:35:08.783Z,3.40
2019-04-04T19:41:53.719Z,3.10
2019-04-04T19:48:39.059Z,3.30
2019-04-04T19:55:24.202Z,3.77
2019-04-04T20:02:09.363Z,3.83
2019-04-04T20:08:55.066Z,4.53
2019-04-04T20:15:40.993Z,3.73
2019-04-04T20:22:26.576Z,4.45
2019-04-04T20:29:12.491Z,4.97
2019-04-04T20:35:59.303Z,4.93
2019-04-04T20:42:44.545Z,4.70
2019-04-04T20:49:29.559Z,5.67
2019-04-04T20:56:14.849Z,5.47
2019-04-04T21:03:00.507Z,5.13
2019-04-04T21:09:45.918Z,4.83
2019-04-04T21:16:31.559Z,5.13
2019-04-04T21:23:16.730Z,4.80
2019-04-04T21:30:01.591Z,4.80
2019-04-04T21:36:46.435Z,5.83
2019-04-04T21:43:31.287Z,5.60
2019-04-04T21:50:16.242Z,4.70
2019-04-04T21:57:01.409Z,4.50
2019-04-04T22:03:46.419Z,5.00
2019-04-04T22:10:31.259Z,4.73
2019-04-04T22:17:16.104Z,4.70
2019-04-04T22:24:00.952Z,4.77
2019-04-04T22:30:45.884Z,5.40
2019-04-04T22:37:30.795Z,5.50
2019-04-04T22:44:15.709Z,5.33
2019-04-04T22:51:00.550Z,6.30
2019-04-04T22:57:46.472Z,5.53
2019-04-04T23:04:32.384Z,5.83
2019-04-04T23:11:17.986Z,6.10
2019-04-04T23:18:03.087Z,6.30
2019-04-04T23:24:48.214Z,6.30
2019-04-04T23:31:33.690Z,6.10
2019-04-04T23:38:19.123Z,6.90
2019-04-04T23:45:06.228Z,6.53
2019-04-04T23:51:51.402Z,5.93
2019-04-04T23:58:37.308Z,6.77
